sensor_id;sensor_type;location;lat;lon;timestamp;pressure;altitude;pressure_sealevel;temperature;humidity
14293;BME280;62290;59.420;17.842;2023-05-23T00:02:22;101391.13;;;24.19;28.95
14293;BME280;62290;59.420;17.842;2023-05-23T00:04:50;101393.91;;;24.18;29.02
14293;BME280;62290;59.420;17.842;2023-05-23T00:07:25;101399.28;;;24.18;29.01
14293;BME280;62290;59.420;17.842;2023-05-23T00:09:53;101394.03;;;24.16;29.14
14293;BME280;62290;59.420;17.842;2023-05-23T00:12:21;101379.72;;;24.16;29.29
14293;BME280;62290;59.420;17.842;2023-05-23T00:14:49;101367.44;;;24.01;29.02
14293;BME280;62290;59.420;17.842;2023-05-23T00:17:19;101373.69;;;24.12;29.22
14293;BME280;62290;59.420;17.842;2023-05-23T00:19:51;101371.13;;;24.11;29.43
14293;BME280;62290;59.420;17.842;2023-05-23T00:22:21;101369.41;;;24.10;29.30
14293;BME280;62290;59.420;17.842;2023-05-23T00:24:51;101381.06;;;24.10;29.31
14293;BME280;62290;59.420;17.842;2023-05-23T00:27:19;101374.94;;;24.08;29.54
14293;BME280;62290;59.420;17.842;2023-05-23T00:29:47;101376.88;;;24.06;29.65
14293;BME280;62290;59.420;17.842;2023-05-23T00:32:15;101370.63;;;24.06;29.44
14293;BME280;62290;59.420;17.842;2023-05-23T00:34:43;101377.84;;;24.05;29.43
14293;BME280;62290;59.420;17.842;2023-05-23T00:37:12;101376.09;;;24.04;29.62
14293;BME280;62290;59.420;17.842;2023-05-23T00:39:40;101367.31;;;24.02;29.69
14293;BME280;62290;59.420;17.842;2023-05-23T00:42:10;101356.66;;;23.89;29.59
14293;BME280;62290;59.420;17.842;2023-05-23T00:44:38;101371.97;;;24.00;29.85
14293;BME280;62290;59.420;17.842;2023-05-23T00:47:06;101360.56;;;23.96;29.82
14293;BME280;62290;59.420;17.842;2023-05-23T00:49:35;101359.47;;;23.99;29.88
14293;BME280;62290;59.420;17.842;2023-05-23T00:52:03;101356.03;;;23.97;29.91
14293;BME280;62290;59.420;17.842;2023-05-23T00:54:32;101354.44;;;23.94;30.09
14293;BME280;62290;59.420;17.842;2023-05-23T00:57:01;101352.72;;;23.93;30.01
14293;BME280;62290;59.420;17.842;2023-05-23T00:59:31;101334.72;;;23.83;30.25
14293;BME280;62290;59.420;17.842;2023-05-23T01:02:00;101343.91;;;23.91;30.13
14293;BME280;62290;59.420;17.842;2023-05-23T01:04:28;101347.59;;;23.90;30.25
14293;BME280;62290;59.420;17.842;2023-05-23T01:07:00;101338.50;;;23.80;30.51
14293;BME280;62290;59.420;17.842;2023-05-23T01:09:29;101354.91;;;23.88;30.42
14293;BME280;62290;59.420;17.842;2023-05-23T01:14:56;101355.06;;;23.87;30.38
14293;BME280;62290;59.420;17.842;2023-05-23T01:17:33;101353.31;;;23.86;30.35
14293;BME280;62290;59.420;17.842;2023-05-23T01:20:10;101355.28;;;23.84;30.35
14293;BME280;62290;59.420;17.842;2023-05-23T01:25:56;101354.66;;;23.80;30.21
14293;BME280;62290;59.420;17.842;2023-05-23T01:28:32;101339.47;;;23.68;30.28
14293;BME280;62290;59.420;17.842;2023-05-23T01:31:05;101352.34;;;23.76;30.38
14293;BME280;62290;59.420;17.842;2023-05-23T01:33:35;101362.72;;;23.80;30.51
14293;BME280;62290;59.420;17.842;2023-05-23T01:36:05;101353.34;;;23.75;30.65
14293;BME280;62290;59.420;17.842;2023-05-23T01:38:34;101362.13;;;23.77;30.42
14293;BME280;62290;59.420;17.842;2023-05-23T01:41:02;101364.69;;;23.78;30.55
14293;BME280;62290;59.420;17.842;2023-05-23T01:43:32;101356.63;;;23.78;30.59
14293;BME280;62290;59.420;17.842;2023-05-23T01:46:00;101352.47;;;23.74;30.63
14293;BME280;62290;59.420;17.842;2023-05-23T01:48:30;101291.63;;;23.39;30.60
14293;BME280;62290;59.420;17.842;2023-05-23T01:50:58;101363.09;;;23.76;30.71
14293;BME280;62290;59.420;17.842;2023-05-23T01:53:27;101357.34;;;23.69;30.77
14293;BME280;62290;59.420;17.842;2023-05-23T01:55:57;101352.47;;;23.74;30.89
14293;BME280;62290;59.420;17.842;2023-05-23T01:58:29;101347.19;;;23.73;30.77
14293;BME280;62290;59.420;17.842;2023-05-23T02:00:58;101348.78;;;23.75;30.95
14293;BME280;62290;59.420;17.842;2023-05-23T02:03:27;101332.13;;;23.70;30.91
14293;BME280;62290;59.420;17.842;2023-05-23T02:05:55;101332.91;;;23.72;30.91
14293;BME280;62290;59.420;17.842;2023-05-23T02:08:23;101330.22;;;23.72;31.03
14293;BME280;62290;59.420;17.842;2023-05-23T02:10:51;101330.31;;;23.71;31.02
14293;BME280;62290;59.420;17.842;2023-05-23T02:13:19;101325.91;;;23.70;31.01
14293;BME280;62290;59.420;17.842;2023-05-23T02:15:47;101325.16;;;23.68;30.94
14293;BME280;62290;59.420;17.842;2023-05-23T02:18:16;101320.88;;;23.65;30.95
14293;BME280;62290;59.420;17.842;2023-05-23T02:20:45;101320.78;;;23.67;31.12
14293;BME280;62290;59.420;17.842;2023-05-23T02:23:13;101321.75;;;23.66;31.07
14293;BME280;62290;59.420;17.842;2023-05-23T02:25:41;101317.31;;;23.65;31.08
14293;BME280;62290;59.420;17.842;2023-05-23T02:28:09;101310.34;;;23.62;31.04
14293;BME280;62290;59.420;17.842;2023-05-23T02:30:38;101308.41;;;23.64;31.12
14293;BME280;62290;59.420;17.842;2023-05-23T02:33:07;101308.41;;;23.64;31.23
14293;BME280;62290;59.420;17.842;2023-05-23T02:35:36;101305.81;;;23.63;31.13
14293;BME280;62290;59.420;17.842;2023-05-23T02:38:04;101298.75;;;23.62;31.31
14293;BME280;62290;59.420;17.842;2023-05-23T02:40:33;101289.91;;;23.60;31.28
14293;BME280;62290;59.420;17.842;2023-05-23T02:43:01;101297.88;;;23.61;31.15
14293;BME280;62290;59.420;17.842;2023-05-23T02:45:29;101297.88;;;23.61;31.20
14293;BME280;62290;59.420;17.842;2023-05-23T02:47:58;101288.09;;;23.60;31.16
14293;BME280;62290;59.420;17.842;2023-05-23T02:50:26;101291.66;;;23.61;31.11
14293;BME280;62290;59.420;17.842;2023-05-23T02:52:55;101290.78;;;23.60;31.03
14293;BME280;62290;59.420;17.842;2023-05-23T02:55:23;101282.72;;;23.60;30.93
14293;BME280;62290;59.420;17.842;2023-05-23T02:57:52;101282.72;;;23.60;31.02
14293;BME280;62290;59.420;17.842;2023-05-23T03:00:20;101271.34;;;23.57;30.89
14293;BME280;62290;59.420;17.842;2023-05-23T03:02:52;101194.34;;;23.10;30.95
14293;BME280;62290;59.420;17.842;2023-05-23T03:05:21;101275.63;;;23.59;30.98
14293;BME280;62290;59.420;17.842;2023-05-23T03:07:49;101266.81;;;23.57;30.94
14293;BME280;62290;59.420;17.842;2023-05-23T03:10:19;101272.94;;;23.59;30.82
14293;BME280;62290;59.420;17.842;2023-05-23T03:12:47;101273.03;;;23.58;30.83
14293;BME280;62290;59.420;17.842;2023-05-23T03:15:16;101266.69;;;23.59;30.89
14293;BME280;62290;59.420;17.842;2023-05-23T03:17:44;101266.81;;;23.57;30.80
14293;BME280;62290;59.420;17.842;2023-05-23T03:20:14;101264.97;;;23.58;30.68
14293;BME280;62290;59.420;17.842;2023-05-23T03:22:42;101261.31;;;23.59;30.72
14293;BME280;62290;59.420;17.842;2023-05-23T03:25:13;101268.41;;;23.60;30.53
14293;BME280;62290;59.420;17.842;2023-05-23T03:27:44;101260.47;;;23.58;30.54
14293;BME280;62290;59.420;17.842;2023-05-23T03:30:12;101255.06;;;23.58;30.57
14293;BME280;62290;59.420;17.842;2023-05-23T03:32:40;101256.81;;;23.59;30.40
14293;BME280;62290;59.420;17.842;2023-05-23T03:35:08;101257.75;;;23.58;30.49
14293;BME280;62290;59.420;17.842;2023-05-23T03:37:37;101257.91;;;23.57;30.41
14293;BME280;62290;59.420;17.842;2023-05-23T03:40:07;101241.22;;;23.52;30.25
14293;BME280;62290;59.420;17.842;2023-05-23T03:42:35;101253.34;;;23.57;30.52
14293;BME280;62290;59.420;17.842;2023-05-23T03:45:06;101247.25;;;23.55;30.61
14293;BME280;62290;59.420;17.842;2023-05-23T03:47:34;101244.69;;;23.54;30.67
14293;BME280;62290;59.420;17.842;2023-05-23T03:50:03;101239.16;;;23.55;30.56
14293;BME280;62290;59.420;17.842;2023-05-23T03:52:32;101240.88;;;23.56;30.59
14293;BME280;62290;59.420;17.842;2023-05-23T03:55:00;101230.22;;;23.55;30.66
14293;BME280;62290;59.420;17.842;2023-05-23T03:57:29;101232.94;;;23.55;30.85
14293;BME280;62290;59.420;17.842;2023-05-23T03:59:57;101234.66;;;23.56;30.88
14293;BME280;62290;59.420;17.842;2023-05-23T04:02:26;101234.50;;;23.57;30.95
14293;BME280;62290;59.420;17.842;2023-05-23T04:04:55;101226.56;;;23.56;30.84
14293;BME280;62290;59.420;17.842;2023-05-23T04:07:23;101226.34;;;23.59;30.94
14293;BME280;62290;59.420;17.842;2023-05-23T04:09:52;101223.66;;;23.59;30.83
14293;BME280;62290;59.420;17.842;2023-05-23T04:12:20;101214.84;;;23.57;30.87
14293;BME280;62290;59.420;17.842;2023-05-23T04:14:48;101223.50;;;23.60;30.87
14293;BME280;62290;59.420;17.842;2023-05-23T04:17:16;101213.47;;;23.62;30.86
14293;BME280;62290;59.420;17.842;2023-05-23T04:19:46;101217.75;;;23.65;30.76
14293;BME280;62290;59.420;17.842;2023-05-23T04:22:14;101220.34;;;23.66;30.87
14293;BME280;62290;59.420;17.842;2023-05-23T04:24:43;101210.44;;;23.67;30.88
14293;BME280;62290;59.420;17.842;2023-05-23T04:27:11;101211.16;;;23.69;30.94
14293;BME280;62290;59.420;17.842;2023-05-23T04:29:40;101209.34;;;23.69;31.07
14293;BME280;62290;59.420;17.842;2023-05-23T04:32:09;101200.16;;;23.72;31.00
14293;BME280;62290;59.420;17.842;2023-05-23T04:34:37;101203.59;;;23.74;31.00
14293;BME280;62290;59.420;17.842;2023-05-23T04:37:08;101201.50;;;23.77;30.88
14293;BME280;62290;59.420;17.842;2023-05-23T04:39:37;101192.34;;;23.80;31.00
14293;BME280;62290;59.420;17.842;2023-05-23T04:42:37;101192.06;;;23.83;30.92
14293;BME280;62290;59.420;17.842;2023-05-23T04:45:18;101192.56;;;23.88;31.00
14293;BME280;62290;59.420;17.842;2023-05-23T04:48:13;101186.81;;;23.92;30.94
14293;BME280;62290;59.420;17.842;2023-05-23T04:50:45;101174.56;;;24.00;30.97
14293;BME280;62290;59.420;17.842;2023-05-23T04:53:15;101180.16;;;24.08;31.10
14293;BME280;62290;59.420;17.842;2023-05-23T04:55:44;101178.69;;;24.15;31.58
14293;BME280;62290;59.420;17.842;2023-05-23T04:58:15;101181.88;;;24.20;31.84
14293;BME280;62290;59.420;17.842;2023-05-23T05:00:43;101154.22;;;24.18;31.66
14293;BME280;62290;59.420;17.842;2023-05-23T05:03:13;101175.47;;;24.32;31.85
14293;BME280;62290;59.420;17.842;2023-05-23T05:05:44;101172.16;;;24.39;31.66
14293;BME280;62290;59.420;17.842;2023-05-23T05:08:14;101171.50;;;24.47;31.39
14293;BME280;62290;59.420;17.842;2023-05-23T05:10:45;101167.56;;;24.51;31.42
14293;BME280;62290;59.420;17.842;2023-05-23T05:13:14;101167.19;;;24.55;31.24
14293;BME280;62290;59.420;17.842;2023-05-23T05:15:47;101150.81;;;24.47;31.11
14293;BME280;62290;59.420;17.842;2023-05-23T05:18:15;101158.72;;;24.60;30.95
14293;BME280;62290;59.420;17.842;2023-05-23T05:20:44;101163.84;;;24.63;31.08
14293;BME280;62290;59.420;17.842;2023-05-23T05:23:15;101167.00;;;24.68;31.14
14293;BME280;62290;59.420;17.842;2023-05-23T05:25:43;101158.66;;;24.71;30.93
14293;BME280;62290;59.420;17.842;2023-05-23T05:28:11;101159.22;;;24.75;30.81
14293;BME280;62290;59.420;17.842;2023-05-23T05:30:43;101153.50;;;24.79;30.73
14293;BME280;62290;59.420;17.842;2023-05-23T05:33:12;101149.53;;;24.83;30.35
14293;BME280;62290;59.420;17.842;2023-05-23T05:35:40;101141.06;;;24.88;30.25
14293;BME280;62290;59.420;17.842;2023-05-23T05:38:09;101144.22;;;24.93;30.39
14293;BME280;62290;59.420;17.842;2023-05-23T05:40:39;101148.38;;;24.97;30.46
14293;BME280;62290;59.420;17.842;2023-05-23T05:43:08;101136.31;;;25.01;30.26
14293;BME280;62290;59.420;17.842;2023-05-23T05:45:37;101095.41;;;24.75;30.20
14293;BME280;62290;59.420;17.842;2023-05-23T05:48:05;101149.00;;;25.10;29.99
14293;BME280;62290;59.420;17.842;2023-05-23T05:50:34;101144.19;;;25.13;29.73
14293;BME280;62290;59.420;17.842;2023-05-23T05:53:02;101145.66;;;25.17;29.89
14293;BME280;62290;59.420;17.842;2023-05-23T05:55:30;101148.94;;;25.21;29.38
14293;BME280;62290;59.420;17.842;2023-05-23T05:58:00;101133.13;;;25.16;29.45
14293;BME280;62290;59.420;17.842;2023-05-23T06:00:35;101149.25;;;25.28;29.35
14293;BME280;62290;59.420;17.842;2023-05-23T06:03:08;101156.94;;;25.32;29.61
14293;BME280;62290;59.420;17.842;2023-05-23T06:05:43;101146.03;;;25.34;29.05
14293;BME280;62290;59.420;17.842;2023-05-23T06:08:11;101142.06;;;25.38;29.13
14293;BME280;62290;59.420;17.842;2023-05-23T06:10:39;101141.78;;;25.41;29.03
14293;BME280;62290;59.420;17.842;2023-05-23T06:13:09;101138.94;;;25.42;29.06
14293;BME280;62290;59.420;17.842;2023-05-23T06:15:40;101130.56;;;25.45;28.96
14293;BME280;62290;59.420;17.842;2023-05-23T06:18:09;101131.31;;;25.47;29.27
14293;BME280;62290;59.420;17.842;2023-05-23T06:20:37;101136.44;;;25.50;29.28
14293;BME280;62290;59.420;17.842;2023-05-23T06:23:10;101138.03;;;25.53;29.33
14293;BME280;62290;59.420;17.842;2023-05-23T06:25:39;101138.75;;;25.55;28.83
14293;BME280;62290;59.420;17.842;2023-05-23T06:28:07;101143.16;;;25.56;28.95
14293;BME280;62290;59.420;17.842;2023-05-23T06:30:36;101141.03;;;25.59;29.04
14293;BME280;62290;59.420;17.842;2023-05-23T06:33:06;101138.19;;;25.61;29.16
14293;BME280;62290;59.420;17.842;2023-05-23T06:35:34;101137.94;;;25.64;28.92
14293;BME280;62290;59.420;17.842;2023-05-23T06:38:02;101142.34;;;25.65;29.11
14293;BME280;62290;59.420;17.842;2023-05-23T06:40:32;101143.06;;;25.67;28.84
14293;BME280;62290;59.420;17.842;2023-05-23T06:43:00;101132.84;;;25.70;29.15
14293;BME280;62290;59.420;17.842;2023-05-23T06:45:46;101101.25;;;25.52;28.90
14293;BME280;62290;59.420;17.842;2023-05-23T06:48:14;101114.75;;;25.61;29.09
14293;BME280;62290;59.420;17.842;2023-05-23T06:50:43;101141.22;;;25.77;28.71
14293;BME280;62290;59.420;17.842;2023-05-23T06:53:12;101138.38;;;25.78;29.16
14293;BME280;62290;59.420;17.842;2023-05-23T06:55:45;101135.56;;;25.80;28.63
14293;BME280;62290;59.420;17.842;2023-05-23T06:58:17;101137.28;;;25.81;28.58
14293;BME280;62290;59.420;17.842;2023-05-23T07:00:46;101134.16;;;25.86;28.59
14293;BME280;62290;59.420;17.842;2023-05-23T07:03:21;101109.81;;;25.76;28.82
14293;BME280;62290;59.420;17.842;2023-05-23T07:05:49;101123.91;;;25.89;28.58
14293;BME280;62290;59.420;17.842;2023-05-23T07:08:18;101120.50;;;25.87;28.59
14293;BME280;62290;59.420;17.842;2023-05-23T07:11:00;101102.47;;;25.78;28.56
14293;BME280;62290;59.420;17.842;2023-05-23T07:13:40;101127.91;;;25.95;28.43
14293;BME280;62290;59.420;17.842;2023-05-23T07:16:15;101122.50;;;25.95;28.75
14293;BME280;62290;59.420;17.842;2023-05-23T07:19:00;101117.69;;;25.98;28.45
14293;BME280;62290;59.420;17.842;2023-05-23T07:21:29;101118.56;;;25.99;28.44
14293;BME280;62290;59.420;17.842;2023-05-23T07:23:57;101116.81;;;25.98;28.64
14293;BME280;62290;59.420;17.842;2023-05-23T07:26:27;101106.47;;;25.93;28.25
14293;BME280;62290;59.420;17.842;2023-05-23T07:28:55;101107.88;;;25.97;28.78
14293;BME280;62290;59.420;17.842;2023-05-23T07:31:24;101115.16;;;25.97;28.75
14293;BME280;62290;59.420;17.842;2023-05-23T07:33:56;101103.47;;;25.96;28.87
14293;BME280;62290;59.420;17.842;2023-05-23T07:36:30;101106.88;;;25.98;28.66
14293;BME280;62290;59.420;17.842;2023-05-23T07:39:01;101100.50;;;25.99;28.72
14293;BME280;62290;59.420;17.842;2023-05-23T07:41:29;101108.28;;;26.02;28.50
14293;BME280;62290;59.420;17.842;2023-05-23T07:43:57;101103.75;;;26.03;28.53
14293;BME280;62290;59.420;17.842;2023-05-23T07:46:26;101107.16;;;26.05;28.05
14293;BME280;62290;59.420;17.842;2023-05-23T07:48:55;101101.66;;;26.06;27.96
14293;BME280;62290;59.420;17.842;2023-05-23T07:51:23;101101.47;;;26.08;28.26
14293;BME280;62290;59.420;17.842;2023-05-23T07:53:51;101103.22;;;26.09;28.06
14293;BME280;62290;59.420;17.842;2023-05-23T07:56:21;101105.75;;;26.10;27.77
14293;BME280;62290;59.420;17.842;2023-05-23T07:58:49;101104.78;;;26.11;28.03
14293;BME280;62290;59.420;17.842;2023-05-23T08:01:18;101108.34;;;26.12;27.36
14293;BME280;62290;59.420;17.842;2023-05-23T08:04:07;101106.53;;;26.12;27.83
14293;BME280;62290;59.420;17.842;2023-05-23T08:06:44;101100.09;;;26.13;27.63
14293;BME280;62290;59.420;17.842;2023-05-23T08:09:43;101101.94;;;26.13;27.61
14293;BME280;62290;59.420;17.842;2023-05-23T08:12:15;101097.41;;;26.13;27.75
14293;BME280;62290;59.420;17.842;2023-05-23T08:14:44;101098.09;;;26.15;27.62
14293;BME280;62290;59.420;17.842;2023-05-23T08:17:23;101104.53;;;26.14;27.54
14293;BME280;62290;59.420;17.842;2023-05-23T08:19:53;101099.81;;;26.16;27.51
14293;BME280;62290;59.420;17.842;2023-05-23T08:22:21;101100.97;;;26.14;27.19
14293;BME280;62290;59.420;17.842;2023-05-23T08:24:49;101098.09;;;26.15;27.40
14293;BME280;62290;59.420;17.842;2023-05-23T08:27:19;101088.56;;;26.11;26.91
14293;BME280;62290;59.420;17.842;2023-05-23T08:29:52;101091.88;;;26.15;27.47
14293;BME280;62290;59.420;17.842;2023-05-23T08:32:21;101057.84;;;25.93;27.18
14293;BME280;62290;59.420;17.842;2023-05-23T08:34:49;101089.03;;;26.16;27.46
14293;BME280;62290;59.420;17.842;2023-05-23T08:37:19;101098.00;;;26.17;27.03
14293;BME280;62290;59.420;17.842;2023-05-23T08:39:47;101099.81;;;26.16;26.98
14293;BME280;62290;59.420;17.842;2023-05-23T08:42:42;101093.56;;;26.16;26.98
14293;BME280;62290;59.420;17.842;2023-05-23T08:45:13;101098.97;;;26.16;27.11
14293;BME280;62290;59.420;17.842;2023-05-23T08:47:42;101097.28;;;26.15;27.42
14293;BME280;62290;59.420;17.842;2023-05-23T08:50:13;101101.66;;;26.16;27.46
14293;BME280;62290;59.420;17.842;2023-05-23T08:52:48;101093.00;;;26.12;27.47
14293;BME280;62290;59.420;17.842;2023-05-23T08:55:17;101102.53;;;26.16;27.06
14293;BME280;62290;59.420;17.842;2023-05-23T08:57:45;101098.25;;;26.14;27.41
14293;BME280;62290;59.420;17.842;2023-05-23T09:00:36;101102.69;;;26.15;26.93
14293;BME280;62290;59.420;17.842;2023-05-23T09:03:04;101104.53;;;26.14;27.22
14293;BME280;62290;59.420;17.842;2023-05-23T09:05:53;101107.22;;;26.14;26.94
14293;BME280;62290;59.420;17.842;2023-05-23T09:08:23;101109.78;;;26.16;26.86
14293;BME280;62290;59.420;17.842;2023-05-23T09:10:56;101099.97;;;26.15;27.12
14293;BME280;62290;59.420;17.842;2023-05-23T09:13:24;101063.25;;;25.93;27.19
14293;BME280;62290;59.420;17.842;2023-05-23T09:15:56;101096.53;;;26.13;27.00
14293;BME280;62290;59.420;17.842;2023-05-23T09:18:32;101086.72;;;26.12;26.64
14293;BME280;62290;59.420;17.842;2023-05-23T09:21:01;101094.69;;;26.13;26.58
14293;BME280;62290;59.420;17.842;2023-05-23T09:23:34;101099.25;;;26.13;26.68
14293;BME280;62290;59.420;17.842;2023-05-23T09:26:03;101099.25;;;26.13;26.45
14293;BME280;62290;59.420;17.842;2023-05-23T09:28:32;101089.81;;;26.07;26.81
14293;BME280;62290;59.420;17.842;2023-05-23T09:31:01;101094.94;;;26.10;26.75
14293;BME280;62290;59.420;17.842;2023-05-23T09:33:35;101100.97;;;26.14;26.50
14293;BME280;62290;59.420;17.842;2023-05-23T09:36:04;101100.22;;;26.12;26.20
14293;BME280;62290;59.420;17.842;2023-05-23T09:38:38;101102.94;;;26.12;26.16
14293;BME280;62290;59.420;17.842;2023-05-23T09:41:08;101091.53;;;26.08;25.62
14293;BME280;62290;59.420;17.842;2023-05-23T09:43:38;101089.41;;;26.02;25.76
14293;BME280;62290;59.420;17.842;2023-05-23T09:46:09;101104.06;;;26.09;25.67
14293;BME280;62290;59.420;17.842;2023-05-23T09:48:38;101097.94;;;26.07;25.26
14293;BME280;62290;59.420;17.842;2023-05-23T09:51:08;101101.47;;;26.08;25.54
14293;BME280;62290;59.420;17.842;2023-05-23T09:53:38;101104.34;;;26.06;25.62
14293;BME280;62290;59.420;17.842;2023-05-23T09:56:08;101102.63;;;26.05;25.13
14293;BME280;62290;59.420;17.842;2023-05-23T09:58:38;101105.47;;;26.04;25.20
14293;BME280;62290;59.420;17.842;2023-05-23T10:01:09;101100.34;;;26.01;25.01
14293;BME280;62290;59.420;17.842;2023-05-23T10:03:40;101102.91;;;26.02;25.48
14293;BME280;62290;59.420;17.842;2023-05-23T10:06:16;101102.06;;;26.02;24.93
14293;BME280;62290;59.420;17.842;2023-05-23T10:08:51;101108.59;;;25.99;25.20
14293;BME280;62290;59.420;17.842;2023-05-23T10:12:13;101097.94;;;25.98;24.83
14293;BME280;62290;59.420;17.842;2023-05-23T10:14:51;101077.44;;;25.86;25.18
14293;BME280;62290;59.420;17.842;2023-05-23T10:17:27;101097.22;;;25.96;24.82
14293;BME280;62290;59.420;17.842;2023-05-23T10:19:59;101105.16;;;25.97;25.09
14293;BME280;62290;59.420;17.842;2023-05-23T10:22:28;101101.75;;;25.95;25.23
14293;BME280;62290;59.420;17.842;2023-05-23T10:24:59;101103.47;;;25.96;24.93
14293;BME280;62290;59.420;17.842;2023-05-23T10:27:27;101100.91;;;25.95;25.16
14293;BME280;62290;59.420;17.842;2023-05-23T10:29:55;101096.63;;;25.92;25.16
14293;BME280;62290;59.420;17.842;2023-05-23T10:32:24;101098.19;;;25.95;24.97
14293;BME280;62290;59.420;17.842;2023-05-23T10:34:57;101091.22;;;25.92;24.86
14293;BME280;62290;59.420;17.842;2023-05-23T10:37:32;101090.25;;;25.93;25.01
14293;BME280;62290;59.420;17.842;2023-05-23T10:40:09;101088.53;;;25.92;24.51
14293;BME280;62290;59.420;17.842;2023-05-23T10:42:44;101088.81;;;25.89;24.83
14293;BME280;62290;59.420;17.842;2023-05-23T10:45:17;101089.53;;;25.91;24.49
14293;BME280;62290;59.420;17.842;2023-05-23T10:47:46;101082.44;;;25.90;24.99
14293;BME280;62290;59.420;17.842;2023-05-23T10:50:30;101091.38;;;25.91;24.49
14293;BME280;62290;59.420;17.842;2023-05-23T10:53:00;101088.69;;;25.91;24.33
14293;BME280;62290;59.420;17.842;2023-05-23T10:55:32;101085.41;;;25.87;24.27
14293;BME280;62290;59.420;17.842;2023-05-23T10:58:11;101087.81;;;25.90;24.35
14293;BME280;62290;59.420;17.842;2023-05-23T11:00:49;101088.81;;;25.89;24.46
14293;BME280;62290;59.420;17.842;2023-05-23T11:03:18;101090.81;;;25.87;24.43
14293;BME280;62290;59.420;17.842;2023-05-23T11:05:46;101083.41;;;25.89;24.08
14293;BME280;62290;59.420;17.842;2023-05-23T11:08:15;101087.13;;;25.88;23.81
14293;BME280;62290;59.420;17.842;2023-05-23T11:10:52;101087.13;;;25.88;24.22
14293;BME280;62290;59.420;17.842;2023-05-23T11:13:21;101088.97;;;25.88;24.24
14293;BME280;62290;59.420;17.842;2023-05-23T11:15:50;101094.50;;;25.86;24.01
14293;BME280;62290;59.420;17.842;2023-05-23T11:18:22;101092.94;;;25.84;23.65
14293;BME280;62290;59.420;17.842;2023-05-23T11:20:51;101100.63;;;25.88;23.47
14293;BME280;62290;59.420;17.842;2023-05-23T11:23:21;101105.16;;;25.88;23.82
14293;BME280;62290;59.420;17.842;2023-05-23T11:25:50;101107.88;;;25.88;23.81
14293;BME280;62290;59.420;17.842;2023-05-23T11:28:20;101106.88;;;25.89;23.71
14293;BME280;62290;59.420;17.842;2023-05-23T11:30:49;101102.47;;;25.88;23.25
14293;BME280;62290;59.420;17.842;2023-05-23T11:33:18;101110.56;;;25.88;23.51
14293;BME280;62290;59.420;17.842;2023-05-23T11:35:48;101106.88;;;25.89;23.44
14293;BME280;62290;59.420;17.842;2023-05-23T11:38:17;101097.91;;;25.88;23.08
14293;BME280;62290;59.420;17.842;2023-05-23T11:40:46;101098.03;;;25.87;23.13
14293;BME280;62290;59.420;17.842;2023-05-23T11:43:16;101090.09;;;25.85;23.12
14293;BME280;62290;59.420;17.842;2023-05-23T11:45:46;101092.53;;;25.88;22.83
14293;BME280;62290;59.420;17.842;2023-05-23T11:48:15;101092.53;;;25.88;22.73
14293;BME280;62290;59.420;17.842;2023-05-23T11:50:45;101087.25;;;25.87;22.85
14293;BME280;62290;59.420;17.842;2023-05-23T11:53:15;101089.81;;;25.88;22.78
14293;BME280;62290;59.420;17.842;2023-05-23T11:55:50;101082.69;;;25.87;23.18
14293;BME280;62290;59.420;17.842;2023-05-23T11:58:20;101081.84;;;25.87;23.17
14293;BME280;62290;59.420;17.842;2023-05-23T12:00:49;101085.28;;;25.89;23.20
14293;BME280;62290;59.420;17.842;2023-05-23T12:03:20;101083.56;;;25.88;22.86
14293;BME280;62290;59.420;17.842;2023-05-23T12:05:49;101076.44;;;25.87;23.01
14293;BME280;62290;59.420;17.842;2023-05-23T12:08:17;101076.31;;;25.88;23.09
14293;BME280;62290;59.420;17.842;2023-05-23T12:10:50;101073.34;;;25.91;23.04
14293;BME280;62290;59.420;17.842;2023-05-23T12:13:18;101072.91;;;25.86;22.57
14293;BME280;62290;59.420;17.842;2023-05-23T12:15:46;101080.16;;;25.86;22.63
14293;BME280;62290;59.420;17.842;2023-05-23T12:18:20;101075.31;;;25.89;23.07
14293;BME280;62290;59.420;17.842;2023-05-23T12:20:48;101074.75;;;25.86;22.76
14293;BME280;62290;59.420;17.842;2023-05-23T12:23:17;101072.59;;;25.89;22.86
14293;BME280;62290;59.420;17.842;2023-05-23T12:25:49;101079.72;;;25.90;22.84
14293;BME280;62290;59.420;17.842;2023-05-23T12:28:17;101069.91;;;25.89;22.68
14293;BME280;62290;59.420;17.842;2023-05-23T12:30:46;101080.72;;;25.89;23.17
14293;BME280;62290;59.420;17.842;2023-05-23T12:33:17;101082.44;;;25.90;22.63
14293;BME280;62290;59.420;17.842;2023-05-23T12:35:47;101080.72;;;25.89;23.13
14293;BME280;62290;59.420;17.842;2023-05-23T12:38:15;101079.88;;;25.89;23.15
14293;BME280;62290;59.420;17.842;2023-05-23T12:40:45;101069.63;;;25.83;22.87
14293;BME280;62290;59.420;17.842;2023-05-23T12:43:14;101081.00;;;25.86;22.95
14293;BME280;62290;59.420;17.842;2023-05-23T12:45:42;101082.69;;;25.87;23.39
14293;BME280;62290;59.420;17.842;2023-05-23T12:48:10;101076.31;;;25.88;22.98
14293;BME280;62290;59.420;17.842;2023-05-23T12:50:38;101076.44;;;25.87;23.23
14293;BME280;62290;59.420;17.842;2023-05-23T12:53:08;101080.84;;;25.88;23.12
14293;BME280;62290;59.420;17.842;2023-05-23T12:55:36;101073.91;;;25.85;23.09
14293;BME280;62290;59.420;17.842;2023-05-23T12:58:05;101075.63;;;25.86;23.17
14293;BME280;62290;59.420;17.842;2023-05-23T13:00:33;101074.59;;;25.87;23.20
14293;BME280;62290;59.420;17.842;2023-05-23T13:03:01;101072.06;;;25.86;23.11
14293;BME280;62290;59.420;17.842;2023-05-23T13:05:29;101076.44;;;25.87;23.50